Time;durP1;ratioP1;P1;durP2;ratioP2;P2;SDS_P1;SDS_P2;PMS_P1;PMS_P2;Temp;Humidity;BMP_temperature;BMP_pressure;BME280_temperature;BME280_humidity;BME280_pressure;Samples;Min_cycle;Max_cycle;Signal;HPM_P1;HPM_P2
2023/02/25 00:00:48;;;;;;;10;6.3;;;;;;;7.7;82;96630;;;;
2023/02/25 00:11:48;;;;;;;10;6.3;;;;;;;7.7;81.4;96610;;;;
2023/02/25 00:22:48;;;;;;;11.8;6.8;;;;;;;7.7;81.4;96580;;;;
2023/02/25 00:33:48;;;;;;;11.8;6.8;;;;;;;7.6;81.4;96610;;;;
2023/02/25 00:43:48;;;;;;;11.8;6.8;;;;;;;7.4;83.4;96610;;;;
2023/02/25 00:54:48;;;;;;;12;7.1;;;;;;;6.9;84.9;96580;;;;
2023/02/25 01:05:48;;;;;;;12;7.1;;;;;;;6.5;86.5;96550;;;;
2023/02/25 01:16:48;;;;;;;9.8;6.3;;;;;;;6.5;87;96540;;;;
2023/02/25 01:27:48;;;;;;;9.8;6.3;;;;;;;6.6;87.3;96530;;;;
2023/02/25 01:37:48;;;;;;;9.8;6.3;;;;;;;6.5;87.9;96530;;;;
2023/02/25 01:48:48;;;;;;;11.7;7.5;;;;;;;6.4;88.7;96550;;;;
2023/02/25 01:59:48;;;;;;;11.7;7.5;;;;;;;6.3;88.2;96540;;;;
2023/02/25 02:09:55;;;;;;;11.7;7.5;;;;;;;6.1;86.7;96540;;;;
2023/02/25 02:20:48;;;;;;;13.5;7.6;;;;;;;5.9;86.4;96530;;;;
2023/02/25 02:30:48;;;;;;;13.5;7.6;;;;;;;5.9;86.6;96520;;;;
2023/02/25 02:41:48;;;;;;;13.5;7.6;;;;;;;5.7;87.6;96470;;;;
2023/02/25 02:51:48;;;;;;;9.6;5.3;;;;;;;5.8;88.2;96480;;;;
2023/02/25 03:02:48;;;;;;;9.6;5.3;;;;;;;5.9;88.1;96470;;;;
2023/02/25 03:13:48;;;;;;;9.6;5.3;;;;;;;5.9;88.5;96470;;;;
2023/02/25 03:23:48;;;;;;;10.4;5.1;;;;;;;6;88.6;96490;;;;
2023/02/25 03:34:48;;;;;;;10.4;5.1;;;;;;;6.1;88.5;96490;;;;
2023/02/25 03:44:48;;;;;;;11.2;6.2;;;;;;;6.2;87.7;96470;;;;
2023/02/25 03:55:48;;;;;;;11.2;6.2;;;;;;;6.3;86.6;96490;;;;
2023/02/25 04:05:48;;;;;;;11.2;6.2;;;;;;;6.1;85.7;96540;;;;
2023/02/25 04:16:48;;;;;;;14.5;7.6;;;;;;;5;85.1;96590;;;;
2023/02/25 04:26:48;;;;;;;14.5;7.6;;;;;;;4.5;86.7;96610;;;;
2023/02/25 04:37:48;;;;;;;14.5;7.6;;;;;;;3.9;88;96620;;;;
2023/02/25 04:48:48;;;;;;;14;8;;;;;;;3.7;88.9;96600;;;;
2023/02/25 04:59:48;;;;;;;14;8;;;;;;;3.6;90;96610;;;;
2023/02/25 05:10:48;;;;;;;14;8;;;;;;;3.7;90.3;96630;;;;
2023/02/25 05:21:48;;;;;;;14.5;7.8;;;;;;;3.7;90.5;96640;;;;
2023/02/25 05:31:50;;;;;;;14.5;7.8;;;;;;;3.6;90.2;96650;;;;
2023/02/25 05:42:48;;;;;;;14.5;7.8;;;;;;;3.6;89.7;96650;;;;
2023/02/25 05:52:48;;;;;;;14.3;7.9;;;;;;;3.5;89.4;96650;;;;
2023/02/25 06:02:48;;;;;;;14.3;7.9;;;;;;;3.5;89.3;96640;;;;
2023/02/25 06:13:48;;;;;;;14.3;7.9;;;;;;;3.6;89;96650;;;;
2023/02/25 06:23:49;;;;;;;10.7;5.9;;;;;;;3.6;88.8;96660;;;;
2023/02/25 06:33:49;;;;;;;10.7;5.9;;;;;;;3.7;88.7;96670;;;;
2023/02/25 06:44:48;;;;;;;10.4;5.3;;;;;;;3.7;88.4;96680;;;;
2023/02/25 06:54:48;;;;;;;10.4;5.3;;;;;;;3.7;88.2;96670;;;;
2023/02/25 07:04:48;;;;;;;10.4;5.3;;;;;;;3.8;87.7;96650;;;;
2023/02/25 07:14:48;;;;;;;10.9;6;;;;;;;3.8;87.1;96660;;;;
2023/02/25 07:24:48;;;;;;;10.9;6;;;;;;;4;87.2;96650;;;;
2023/02/25 07:34:48;;;;;;;10.9;6;;;;;;;4.2;87.4;96650;;;;
2023/02/25 07:45:48;;;;;;;10.7;5.7;;;;;;;4.8;86.2;96650;;;;
2023/02/25 07:55:49;;;;;;;10.7;5.7;;;;;;;5.4;84.3;96640;;;;
2023/02/25 08:05:48;;;;;;;10.7;5.7;;;;;;;5.6;78.5;96630;;;;
2023/02/25 08:15:48;;;;;;;6.3;3.3;;;;;;;5.5;76.9;96620;;;;
2023/02/25 08:25:48;;;;;;;6.3;3.3;;;;;;;5.2;75.7;96620;;;;
2023/02/25 08:35:48;;;;;;;6.3;3.3;;;;;;;5.5;74.2;96630;;;;
2023/02/25 08:46:48;;;;;;;3;1.7;;;;;;;5.7;73.1;96650;;;;
2023/02/25 08:56:48;;;;;;;3;1.7;;;;;;;5.9;72.8;96650;;;;
2023/02/25 09:07:48;;;;;;;3;1.7;;;;;;;6;72.3;96650;;;;
2023/02/25 09:17:51;;;;;;;8.8;4.3;;;;;;;6.3;69.9;96640;;;;
2023/02/25 09:27:48;;;;;;;8.8;4.3;;;;;;;6.5;68.7;96650;;;;
2023/02/25 09:38:48;;;;;;;8.8;4.3;;;;;;;6.8;66.9;96650;;;;
2023/02/25 09:49:48;;;;;;;5.8;3.1;;;;;;;6.4;69.5;96670;;;;
2023/02/25 10:00:48;;;;;;;5.8;3.1;;;;;;;6.9;67.8;96660;;;;
2023/02/25 10:10:48;;;;;;;5.8;3.1;;;;;;;7.1;66.4;96660;;;;
2023/02/25 10:21:48;;;;;;;3.8;2;;;;;;;6.9;64.1;96650;;;;
2023/02/25 10:31:48;;;;;;;3.8;2;;;;;;;7.2;62.6;96640;;;;
2023/02/25 10:41:48;;;;;;;3.8;2;;;;;;;6.6;63.2;96630;;;;
2023/02/25 10:52:48;;;;;;;3.2;1.9;;;;;;;7.1;62.8;96640;;;;
2023/02/25 11:02:48;;;;;;;3.2;1.9;;;;;;;7.3;62.2;96620;;;;
2023/02/25 11:13:48;;;;;;;3.5;1.6;;;;;;;6.9;61.7;96600;;;;
2023/02/25 11:24:49;;;;;;;3.5;1.6;;;;;;;7;62.5;96630;;;;
2023/02/25 11:35:48;;;;;;;3.5;1.6;;;;;;;6.9;62.5;96640;;;;
2023/02/25 11:46:00;;;;;;;6.9;3.7;;;;;;;6.7;63.5;96650;;;;
2023/02/25 11:56:00;;;;;;;6.9;3.7;;;;;;;6.4;64.7;96670;;;;
2023/02/25 12:06:00;;;;;;;6.9;3.7;;;;;;;5.7;69.5;96690;;;;
2023/02/25 12:16:01;;;;;;;9.2;5;;;;;;;5.6;71.8;96690;;;;
2023/02/25 12:26:00;;;;;;;9.2;5;;;;;;;5.5;73.3;96680;;;;
2023/02/25 12:36:02;;;;;;;9.2;5;;;;;;;5.5;72.4;96680;;;;
2023/02/25 12:46:00;;;;;;;7.7;3.3;;;;;;;4.1;80.6;96720;;;;
2023/02/25 12:57:00;;;;;;;7.7;3.3;;;;;;;4.2;83.8;96720;;;;
2023/02/25 13:07:00;;;;;;;7.7;3.3;;;;;;;3.8;85.1;96750;;;;
2023/02/25 13:18:02;;;;;;;5.4;2.8;;;;;;;3.4;87.4;96770;;;;
2023/02/25 13:28:00;;;;;;;5.4;2.8;;;;;;;3.3;86.5;96800;;;;
2023/02/25 13:38:00;;;;;;;5.4;2.8;;;;;;;2.8;86.9;96800;;;;
2023/02/25 14:28:39;;;;;;;;;;;;;;;4.5;81.4;96830;;;;
2023/02/25 14:38:39;;;;;;;8.2;4.1;;;;;;;4.5;81.2;96830;;;;
2023/02/25 14:49:39;;;;;;;8.2;4.1;;;;;;;4.6;81;96840;;;;
2023/02/25 15:00:39;;;;;;;8.2;4.1;;;;;;;4.4;81.1;96860;;;;
2023/02/25 15:11:39;;;;;;;11.8;5.9;;;;;;;3.9;81;96890;;;;
2023/02/25 15:21:39;;;;;;;11.8;5.9;;;;;;;3.4;81.2;96900;;;;
2023/02/25 15:31:41;;;;;;;11.8;5.9;;;;;;;3.1;81.6;96920;;;;
2023/02/25 15:42:39;;;;;;;5.1;2.4;;;;;;;3.1;82.3;96920;;;;
2023/02/25 15:52:39;;;;;;;5.1;2.4;;;;;;;2.9;81.7;96930;;;;
2023/02/25 16:02:39;;;;;;;7.5;3;;;;;;;2.7;81.2;96960;;;;
2023/02/25 16:13:39;;;;;;;7.5;3;;;;;;;2.8;81.2;96980;;;;
2023/02/25 16:23:39;;;;;;;7.5;3;;;;;;;2.9;81.9;96990;;;;
2023/02/25 16:33:39;;;;;;;5.9;3;;;;;;;2.9;82.1;97020;;;;
2023/02/25 16:43:39;;;;;;;5.9;3;;;;;;;3;81.5;97050;;;;
2023/02/25 16:53:39;;;;;;;5.9;3;;;;;;;3;80.2;97060;;;;
2023/02/25 17:04:39;;;;;;;7.4;3.9;;;;;;;3;80.7;97090;;;;
2023/02/25 17:14:39;;;;;;;7.4;3.9;;;;;;;2.9;81.2;97100;;;;
2023/02/25 17:25:40;;;;;;;7.4;3.9;;;;;;;2.9;81.5;97110;;;;
2023/02/25 17:36:39;;;;;;;9.5;5.7;;;;;;;2.9;80.8;97110;;;;
2023/02/25 17:46:41;;;;;;;9.5;5.7;;;;;;;2.8;80.6;97130;;;;
2023/02/25 17:57:39;;;;;;;9.5;5.7;;;;;;;2.8;80.7;97150;;;;
2023/02/25 18:07:40;;;;;;;8.8;4;;;;;;;2.8;81.1;97170;;;;
2023/02/25 18:17:39;;;;;;;8.8;4;;;;;;;2.8;81.2;97170;;;;
2023/02/25 18:28:39;;;;;;;8.8;4;;;;;;;2.8;81.4;97180;;;;
2023/02/25 18:38:40;;;;;;;8.2;4.6;;;;;;;2.7;81;97180;;;;
2023/02/25 18:49:39;;;;;;;8.2;4.6;;;;;;;2.7;80.1;97180;;;;
2023/02/25 19:00:39;;;;;;;8.2;4.6;;;;;;;2.7;79.5;97190;;;;
2023/02/25 19:11:39;;;;;;;10.1;5;;;;;;;2.7;78.9;97210;;;;
2023/02/25 19:21:39;;;;;;;10.1;5;;;;;;;2.7;79;97220;;;;
2023/02/25 19:31:39;;;;;;;10.1;5;;;;;;;2.6;79.3;97230;;;;
2023/02/25 19:41:39;;;;;;;7.4;4.2;;;;;;;2.6;79.5;97240;;;;
2023/02/25 19:52:39;;;;;;;7.4;4.2;;;;;;;2.6;79.7;97250;;;;
2023/02/25 20:02:39;;;;;;;8.8;5.2;;;;;;;2.6;80.2;97260;;;;
2023/02/25 20:13:39;;;;;;;8.8;5.2;;;;;;;2.5;81.5;97270;;;;
2023/02/25 20:23:39;;;;;;;8.8;5.2;;;;;;;2.4;82.5;97270;;;;
2023/02/25 20:33:39;;;;;;;9.2;5.1;;;;;;;2.2;84.1;97270;;;;
2023/02/25 20:44:39;;;;;;;9.2;5.1;;;;;;;2.1;84.8;97290;;;;
2023/02/25 20:55:39;;;;;;;9.2;5.1;;;;;;;1.9;85.8;97290;;;;
2023/02/25 21:06:40;;;;;;;11.5;5.4;;;;;;;1.9;86.4;97310;;;;
2023/02/25 21:17:40;;;;;;;11.5;5.4;;;;;;;2;86.6;97330;;;;
2023/02/25 21:27:39;;;;;;;11.5;5.4;;;;;;;2;86.9;97350;;;;
2023/02/25 21:37:39;;;;;;;10.5;5.7;;;;;;;1.8;87.7;97350;;;;
2023/02/25 21:48:39;;;;;;;10.5;5.7;;;;;;;1.9;87.9;97360;;;;
2023/02/25 21:59:39;;;;;;;10.5;5.7;;;;;;;1.8;88.3;97360;;;;
2023/02/25 22:09:39;;;;;;;12.2;7.5;;;;;;;1.8;88.6;97380;;;;
2023/02/25 22:20:39;;;;;;;12.2;7.5;;;;;;;1.7;89;97390;;;;
2023/02/25 22:31:39;;;;;;;13.6;7.5;;;;;;;1.4;89.7;97400;;;;
2023/02/25 22:41:39;;;;;;;13.6;7.5;;;;;;;1.5;89.9;97410;;;;
2023/02/25 22:51:40;;;;;;;13.6;7.5;;;;;;;1.6;90;97420;;;;
2023/02/25 23:01:39;;;;;;;14.8;8.1;;;;;;;1.5;90;97440;;;;
2023/02/25 23:11:39;;;;;;;14.8;8.1;;;;;;;1.6;89.7;97450;;;;
2023/02/25 23:22:39;;;;;;;14.8;8.1;;;;;;;1.5;89.5;97460;;;;
2023/02/25 23:32:40;;;;;;;15;7.8;;;;;;;1.5;89.5;97470;;;;
2023/02/25 23:42:40;;;;;;;15;7.8;;;;;;;1.7;89.6;97500;;;;
2023/02/25 23:53:40;;;;;;;15;7.8;;;;;;;1.7;89.4;97490;;;;
